createdAt,value
2022-10-29T00:01:15.575Z,101975.58
2022-10-29T00:03:44.110Z,101980.13
2022-10-29T00:06:13.533Z,101982.27
2022-10-29T00:08:43.010Z,101980.41
2022-10-29T00:11:15.598Z,101984.10
2022-10-29T00:13:44.669Z,101983.41
2022-10-29T00:16:20.397Z,101984.45
2022-10-29T00:18:48.932Z,101989.44
2022-10-29T00:21:20.088Z,101996.55
2022-10-29T00:23:49.162Z,101994.39
2022-10-29T00:26:19.033Z,101996.20
2022-10-29T00:28:47.882Z,101999.01
2022-10-29T00:31:20.153Z,101999.56
2022-10-29T00:33:48.880Z,102002.94
2022-10-29T00:36:20.056Z,102000.44
2022-10-29T00:38:48.865Z,101999.28
2022-10-29T00:41:20.071Z,102000.81
2022-10-29T00:43:51.253Z,102001.88
2022-10-29T00:46:35.149Z,102002.58
2022-10-29T00:49:04.741Z,102004.20
2022-10-29T00:51:34.287Z,102005.43
2022-10-29T00:54:09.544Z,102004.92
2022-10-29T00:56:42.426Z,102006.85
2022-10-29T00:59:11.308Z,102011.70
2022-10-29T01:01:40.523Z,102018.82
2022-10-29T01:04:11.561Z,102019.48
2022-10-29T01:06:41.979Z,102026.02
2022-10-29T01:09:10.653Z,102022.80
2022-10-29T01:12:13.266Z,102022.04
2022-10-29T01:14:41.842Z,102022.28
2022-10-29T01:17:40.441Z,102026.89
2022-10-29T01:20:46.545Z,102031.08
2022-10-29T01:23:41.179Z,102036.50
2022-10-29T01:26:26.215Z,102040.21
2022-10-29T01:29:22.990Z,102041.52
2022-10-29T01:32:11.716Z,102040.23
2022-10-29T01:35:14.233Z,102041.41
2022-10-29T01:37:42.872Z,102047.52
2022-10-29T01:40:34.448Z,102051.23
2022-10-29T01:43:49.280Z,102052.56
2022-10-29T01:46:23.180Z,102055.13
2022-10-29T01:49:00.414Z,102052.70
2022-10-29T01:51:32.304Z,102055.66
2022-10-29T01:54:02.922Z,102051.37
2022-10-29T01:56:31.547Z,102056.13
2022-10-29T01:59:02.226Z,102056.55
2022-10-29T02:02:08.956Z,102058.64
2022-10-29T02:04:49.176Z,102059.85
2022-10-29T02:07:23.426Z,102063.44
2022-10-29T02:09:54.944Z,102065.48
2022-10-29T02:12:38.094Z,102068.05
2022-10-29T02:15:09.622Z,102074.80
2022-10-29T02:17:38.435Z,102077.23
2022-10-29T02:20:09.631Z,102081.77
2022-10-29T02:22:38.269Z,102083.37
2022-10-29T02:25:08.944Z,102084.45
2022-10-29T02:27:37.634Z,102086.23
2022-10-29T02:32:49.032Z,102085.91
2022-10-29T02:35:17.380Z,102090.23
2022-10-29T02:37:46.380Z,102091.81
2022-10-29T02:40:15.209Z,102094.28
2022-10-29T02:42:43.871Z,102097.28
2022-10-29T02:45:12.239Z,102099.59
2022-10-29T02:47:40.900Z,102103.99
2022-10-29T02:50:10.087Z,102103.31
2022-10-29T02:52:38.908Z,102106.30
2022-10-29T02:55:07.989Z,102108.74
2022-10-29T02:57:37.016Z,102112.92
2022-10-29T03:00:06.995Z,102116.42
2022-10-29T03:02:35.499Z,102115.85
2022-10-29T03:05:04.229Z,102116.59
2022-10-29T03:07:38.546Z,102119.92
2022-10-29T03:10:08.508Z,102120.48
2022-10-29T03:12:36.802Z,102119.48
2022-10-29T03:15:05.177Z,102121.27
2022-10-29T03:17:33.773Z,102121.46
2022-10-29T03:20:02.156Z,102123.77
2022-10-29T03:22:30.978Z,102125.41
2022-10-29T03:25:00.169Z,102126.69
2022-10-29T03:27:28.701Z,102126.58
2022-10-29T03:29:56.913Z,102125.41
2022-10-29T03:32:25.116Z,102120.23
2022-10-29T03:34:57.408Z,102118.00
2022-10-29T03:37:28.067Z,102116.44
2022-10-29T03:39:56.358Z,102115.42
2022-10-29T03:42:24.656Z,102117.06
2022-10-29T03:44:53.546Z,102116.59
2022-10-29T03:47:22.174Z,102116.27
2022-10-29T03:49:50.707Z,102118.55
2022-10-29T03:52:19.444Z,102121.33
2022-10-29T03:54:48.046Z,102120.47
2022-10-29T03:57:16.184Z,102123.60
2022-10-29T03:59:46.001Z,102123.45
2022-10-29T04:02:17.245Z,102125.33
2022-10-29T04:04:45.496Z,102124.96
2022-10-29T04:07:13.801Z,102130.69
2022-10-29T04:09:42.363Z,102135.55
2022-10-29T04:12:10.985Z,102133.13
2022-10-29T04:14:44.492Z,102134.22
2022-10-29T04:17:14.466Z,102137.20
2022-10-29T04:19:43.249Z,102134.06
2022-10-29T04:28:41.872Z,102137.06
2022-10-29T04:30:36.724Z,102136.92
2022-10-29T04:33:05.088Z,102141.63
2022-10-29T04:35:33.191Z,102142.17
2022-10-29T04:38:08.579Z,102146.77
2022-10-29T04:40:37.355Z,102152.70
2022-10-29T04:43:05.882Z,102156.73
2022-10-29T04:45:34.586Z,102158.45
2022-10-29T04:48:04.187Z,102159.48
2022-10-29T04:50:33.231Z,102156.66
2022-10-29T04:53:02.976Z,102159.58
2022-10-29T04:55:31.804Z,102164.92
2022-10-29T04:58:00.089Z,102164.42
2022-10-29T05:00:28.430Z,102165.97
2022-10-29T05:02:56.820Z,102171.04
2022-10-29T05:05:25.439Z,102176.41
2022-10-29T05:08:04.504Z,102177.43
2022-10-29T05:10:36.426Z,102179.35
2022-10-29T05:13:11.930Z,102181.80
2022-10-29T05:15:41.035Z,102183.52
2022-10-29T05:18:10.778Z,102188.91
2022-10-29T05:20:38.886Z,102194.48
2022-10-29T05:23:09.616Z,102197.98
2022-10-29T05:25:39.697Z,102199.08
2022-10-29T05:28:16.246Z,102196.01
2022-10-29T05:30:44.849Z,102200.39
2022-10-29T05:33:15.852Z,102203.52
2022-10-29T05:35:45.022Z,102204.05
2022-10-29T05:38:14.870Z,102205.57
2022-10-29T05:40:45.860Z,102205.16
2022-10-29T05:43:15.672Z,102206.47
2022-10-29T05:45:44.640Z,102207.77
2022-10-29T05:48:14.061Z,102210.66
2022-10-29T05:50:42.830Z,102210.75
2022-10-29T05:53:14.582Z,102212.98
2022-10-29T05:55:43.864Z,102213.41
2022-10-29T05:58:14.784Z,102221.34
2022-10-29T06:00:45.279Z,102217.76
2022-10-29T06:03:19.319Z,102216.98
2022-10-29T06:08:33.075Z,102208.75
2022-10-29T06:11:05.090Z,102211.95
2022-10-29T06:13:33.505Z,102213.79
2022-10-29T06:16:02.366Z,102210.31
2022-10-29T06:18:31.166Z,102212.86
2022-10-29T06:21:01.427Z,102212.95
2022-10-29T06:23:32.916Z,102213.02
2022-10-29T06:26:04.634Z,102212.69
2022-10-29T06:28:34.729Z,102212.89
2022-10-29T06:31:03.676Z,102214.61
2022-10-29T06:33:32.398Z,102215.09
2022-10-29T06:36:01.920Z,102213.70
2022-10-29T06:38:30.278Z,102221.48
2022-10-29T06:41:00.209Z,102221.48
2022-10-29T06:43:28.901Z,102219.89
2022-10-29T06:45:57.107Z,102219.14
2022-10-29T06:48:25.343Z,102212.35
2022-10-29T06:50:53.795Z,102210.44
2022-10-29T06:53:22.517Z,102212.64
2022-10-29T06:55:50.784Z,102218.13
2022-10-29T06:58:22.258Z,102218.70
2022-10-29T07:03:45.937Z,102215.10
2022-10-29T07:06:18.017Z,102217.02
2022-10-29T07:08:46.225Z,102215.66
2022-10-29T07:11:15.437Z,102213.98
2022-10-29T07:13:44.571Z,102212.14
2022-10-29T07:16:13.316Z,102212.96
2022-10-29T07:18:42.205Z,102213.63
2022-10-29T07:21:10.941Z,102213.77
2022-10-29T07:23:39.576Z,102210.80
2022-10-29T07:26:08.102Z,102209.54
2022-10-29T07:28:36.413Z,102202.70
2022-10-29T07:31:04.735Z,102202.39
2022-10-29T07:33:32.984Z,102201.77
2022-10-29T07:36:01.334Z,102202.36
2022-10-29T07:38:32.872Z,102199.51
2022-10-29T07:41:01.883Z,102202.90
2022-10-29T07:43:32.857Z,102206.64
2022-10-29T07:46:04.381Z,102211.67
2022-10-29T07:48:33.118Z,102218.08
2022-10-29T07:51:02.783Z,102224.08
2022-10-29T07:53:33.927Z,102225.21
2022-10-29T07:56:02.877Z,102226.34
2022-10-29T07:58:31.914Z,102226.02
2022-10-29T08:01:01.683Z,102225.83
2022-10-29T08:03:31.011Z,102224.78
2022-10-29T08:06:03.088Z,102223.38
2022-10-29T08:08:36.099Z,102225.43
2022-10-29T08:11:06.044Z,102227.21
2022-10-29T08:13:34.574Z,102225.85
2022-10-29T08:16:03.021Z,102225.84
2022-10-29T08:18:32.054Z,102225.03
2022-10-29T08:21:04.319Z,102225.04
2022-10-29T08:23:32.870Z,102228.14
2022-10-29T08:26:04.634Z,102230.59
2022-10-29T08:28:35.701Z,102230.43
2022-10-29T08:31:04.719Z,102240.36
2022-10-29T08:33:33.587Z,102245.63
2022-10-29T08:36:02.341Z,102244.69
2022-10-29T08:38:31.290Z,102249.70
2022-10-29T08:41:50.794Z,102251.98
2022-10-29T08:45:00.832Z,102258.89
2022-10-29T08:47:31.859Z,102263.37
2022-10-29T08:50:26.518Z,102268.52
2022-10-29T08:53:21.894Z,102270.50
2022-10-29T08:55:45.869Z,102264.38
2022-10-29T08:58:23.003Z,102264.87
2022-10-29T09:00:55.769Z,102260.70
2022-10-29T09:03:25.338Z,102257.20
2022-10-29T09:06:18.937Z,102255.29
2022-10-29T09:09:16.489Z,102258.35
2022-10-29T09:11:50.884Z,102261.09
2022-10-29T09:14:36.778Z,102264.33
2022-10-29T09:17:30.476Z,102267.65
2022-10-29T09:20:28.034Z,102266.69
2022-10-29T09:23:44.630Z,102272.23
2022-10-29T09:26:32.307Z,102275.14
2022-10-29T09:29:03.651Z,102277.80
2022-10-29T09:31:43.353Z,102282.58
2022-10-29T09:34:32.965Z,102283.98
2022-10-29T09:37:06.026Z,102284.75
2022-10-29T09:39:41.480Z,102285.29
2022-10-29T09:42:14.127Z,102286.31
2022-10-29T09:45:12.541Z,102286.63
2022-10-29T09:47:57.610Z,102290.17
2022-10-29T09:50:34.112Z,102290.88
2022-10-29T09:53:03.262Z,102296.45
2022-10-29T09:55:42.686Z,102299.73
2022-10-29T09:58:43.772Z,102306.64
2022-10-29T10:01:12.696Z,102317.36
2022-10-29T10:03:56.834Z,102318.95
2022-10-29T10:06:25.148Z,102318.06
2022-10-29T10:09:07.555Z,102318.06
2022-10-29T10:11:41.520Z,102320.63
2022-10-29T10:14:21.823Z,102322.27
2022-10-29T10:17:01.254Z,102322.91
2022-10-29T10:19:32.825Z,102323.70
2022-10-29T10:22:06.710Z,102327.13
2022-10-29T10:24:37.879Z,102326.98
2022-10-29T10:27:22.186Z,102329.14
2022-10-29T10:30:06.760Z,102335.59
2022-10-29T10:32:35.538Z,102337.08
2022-10-29T10:35:03.973Z,102336.49
2022-10-29T10:37:34.174Z,102330.36
2022-10-29T10:40:06.936Z,102332.02
2022-10-29T10:42:40.457Z,102333.73
2022-10-29T10:45:25.115Z,102333.64
2022-10-29T10:48:00.304Z,102328.23
2022-10-29T10:50:35.002Z,102322.51
2022-10-29T10:53:30.158Z,102320.45
2022-10-29T10:55:59.079Z,102320.09
2022-10-29T10:58:36.754Z,102312.52
2022-10-29T11:01:07.593Z,102308.27
2022-10-29T11:03:44.412Z,102306.94
2022-10-29T11:06:41.330Z,102305.43
2022-10-29T11:09:21.750Z,102312.35
2022-10-29T11:12:08.445Z,102315.11
2022-10-29T11:14:56.966Z,102311.63
2022-10-29T11:17:30.361Z,102296.92
2022-10-29T11:20:09.524Z,102282.61
2022-10-29T11:23:06.829Z,102279.86
2022-10-29T11:25:56.047Z,102277.05
2022-10-29T11:28:42.527Z,102277.19
2022-10-29T11:31:38.860Z,102275.96
2022-10-29T11:34:17.415Z,102279.30
2022-10-29T11:37:06.877Z,102279.40
2022-10-29T11:39:53.416Z,102282.85
2022-10-29T11:42:22.104Z,102284.67
2022-10-29T11:44:50.905Z,102288.05
2022-10-29T11:47:47.871Z,102289.92
2022-10-29T11:50:33.074Z,102297.27
2022-10-29T11:53:20.544Z,102300.95
2022-10-29T11:56:24.647Z,102299.38
2022-10-29T11:59:23.388Z,102299.15
2022-10-29T12:02:22.875Z,102291.92
2022-10-29T12:05:22.207Z,102287.77
2022-10-29T12:08:22.954Z,102281.87
2022-10-29T12:11:22.577Z,102285.27
2022-10-29T12:13:57.306Z,102285.45
2022-10-29T12:17:09.947Z,102281.17
2022-10-29T12:19:43.260Z,102280.62
2022-10-29T12:22:43.025Z,102281.00
2022-10-29T12:25:41.819Z,102289.08
2022-10-29T12:31:22.951Z,102278.45
2022-10-29T12:34:32.562Z,102277.46
2022-10-29T12:37:16.757Z,102271.25
2022-10-29T12:40:17.041Z,102262.16
2022-10-29T12:42:47.191Z,102253.02
2022-10-29T12:45:43.439Z,102254.56
2022-10-29T12:48:29.640Z,102257.75
2022-10-29T12:51:19.293Z,102259.02
2022-10-29T12:53:47.669Z,102255.48
2022-10-29T12:56:17.768Z,102249.95
2022-10-29T12:58:46.846Z,102245.75
2022-10-29T13:01:49.960Z,102237.18
2022-10-29T13:04:30.886Z,102233.25
2022-10-29T13:07:22.698Z,102234.63
2022-10-29T13:09:58.909Z,102234.66
2022-10-29T13:13:06.472Z,102239.20
2022-10-29T13:15:45.988Z,102238.94
2022-10-29T13:18:14.598Z,102240.59
2022-10-29T13:20:49.406Z,102242.23
2022-10-29T13:23:24.333Z,102229.66
2022-10-29T13:26:06.121Z,102225.44
2022-10-29T13:28:37.278Z,102233.38
2022-10-29T13:31:05.717Z,102234.14
2022-10-29T13:33:34.089Z,102236.01
2022-10-29T13:36:12.853Z,102236.75
2022-10-29T13:39:07.854Z,102234.63
2022-10-29T13:41:47.977Z,102237.78
2022-10-29T13:44:26.005Z,102243.20
2022-10-29T13:46:58.174Z,102255.19
2022-10-29T13:49:30.535Z,102272.19
2022-10-29T13:52:08.413Z,102284.53
2022-10-29T13:54:36.715Z,102289.41
2022-10-29T13:57:14.181Z,102286.27
2022-10-29T13:59:59.155Z,102275.13
2022-10-29T14:02:32.219Z,102285.15
2022-10-29T14:05:30.973Z,102293.14
2022-10-29T14:08:12.263Z,102295.47
2022-10-29T14:10:43.644Z,102290.46
2022-10-29T14:13:33.967Z,102286.67
2022-10-29T14:16:08.757Z,102279.21
2022-10-29T14:18:51.114Z,102277.50
2022-10-29T14:21:23.507Z,102279.79
2022-10-29T14:24:06.109Z,102283.85
2022-10-29T14:26:37.937Z,102283.19
2022-10-29T14:29:19.544Z,102285.13
2022-10-29T14:31:49.874Z,102284.48
2022-10-29T14:34:28.364Z,102287.17
2022-10-29T14:37:06.593Z,102287.80
2022-10-29T14:39:57.038Z,102283.08
2022-10-29T14:42:38.659Z,102280.09
2022-10-29T14:45:21.309Z,102282.27
2022-10-29T14:47:54.823Z,102291.74
2022-10-29T14:50:26.696Z,102297.77
2022-10-29T14:53:02.249Z,102296.66
2022-10-29T14:55:41.013Z,102297.46
2022-10-29T14:58:21.742Z,102299.39
2022-10-29T15:01:06.664Z,102306.89
2022-10-29T15:03:37.274Z,102319.44
2022-10-29T15:06:16.158Z,102322.32
2022-10-29T15:08:57.608Z,102326.55
2022-10-29T15:11:36.728Z,102322.19
2022-10-29T15:14:25.083Z,102321.26
2022-10-29T15:16:53.982Z,102315.66
2022-10-29T15:19:23.891Z,102310.42
2022-10-29T15:21:52.746Z,102314.13
2022-10-29T15:24:25.525Z,102319.62
2022-10-29T15:27:01.261Z,102332.33
2022-10-29T15:29:39.273Z,102339.27
2022-10-29T15:32:15.897Z,102349.23
2022-10-29T15:34:57.024Z,102348.11
2022-10-29T15:37:34.463Z,102345.67
2022-10-29T15:40:06.346Z,102342.56
2022-10-29T15:42:37.438Z,102336.13
2022-10-29T15:45:08.834Z,102329.98
2022-10-29T15:47:43.407Z,102332.98
2022-10-29T15:50:15.074Z,102335.83
2022-10-29T15:53:06.860Z,102339.58
2022-10-29T15:55:41.477Z,102338.31
2022-10-29T15:58:24.147Z,102341.71
2022-10-29T16:00:53.114Z,102346.63
2022-10-29T16:03:24.791Z,102346.15
2022-10-29T16:06:00.630Z,102341.32
2022-10-29T16:08:56.770Z,102343.52
2022-10-29T16:11:26.301Z,102342.27
2022-10-29T16:13:55.662Z,102344.98
2022-10-29T16:16:26.286Z,102347.89
2022-10-29T16:18:55.467Z,102352.77
2022-10-29T16:21:26.010Z,102355.26
2022-10-29T16:23:54.548Z,102355.16
2022-10-29T16:26:25.843Z,102353.42
2022-10-29T16:28:54.391Z,102355.81
2022-10-29T16:31:25.458Z,102361.98
2022-10-29T16:33:56.262Z,102366.89
2022-10-29T16:36:25.603Z,102370.74
2022-10-29T16:38:54.469Z,102375.31
2022-10-29T16:41:23.599Z,102375.84
2022-10-29T16:43:52.027Z,102371.16
2022-10-29T16:46:20.511Z,102371.58
2022-10-29T16:48:48.848Z,102366.13
2022-10-29T16:51:17.171Z,102365.13
2022-10-29T16:53:45.796Z,102370.34
2022-10-29T16:56:14.382Z,102369.42
2022-10-29T16:58:43.108Z,102366.41
2022-10-29T17:01:12.189Z,102370.51
2022-10-29T17:03:40.536Z,102367.98
2022-10-29T17:06:10.740Z,102368.66
2022-10-29T17:08:39.770Z,102368.52
2022-10-29T17:11:11.228Z,102364.91
2022-10-29T17:13:40.205Z,102366.30
2022-10-29T17:16:17.847Z,102367.59
2022-10-29T17:18:51.444Z,102370.65
2022-10-29T17:21:20.116Z,102368.81
2022-10-29T17:23:48.923Z,102368.30
2022-10-29T17:26:17.805Z,102373.74
2022-10-29T17:28:46.948Z,102380.27
2022-10-29T17:31:15.574Z,102382.02
2022-10-29T17:33:43.984Z,102386.93
2022-10-29T17:36:14.816Z,102399.67
2022-10-29T17:38:43.388Z,102399.98
2022-10-29T17:41:11.773Z,102401.92
2022-10-29T17:43:39.904Z,102402.95
2022-10-29T17:46:08.126Z,102400.48
2022-10-29T17:48:36.359Z,102398.84
2022-10-29T17:51:04.772Z,102391.85
2022-10-29T17:53:33.222Z,102393.67
2022-10-29T17:56:02.734Z,102398.48
2022-10-29T17:58:32.015Z,102399.77
2022-10-29T18:01:08.597Z,102399.86
2022-10-29T18:03:38.103Z,102402.07
2022-10-29T18:06:09.326Z,102401.36
2022-10-29T18:08:39.363Z,102401.19
2022-10-29T18:11:21.441Z,102402.97
2022-10-29T18:13:51.434Z,102405.38
2022-10-29T18:16:22.437Z,102403.60
2022-10-29T18:19:01.286Z,102401.84
2022-10-29T18:21:30.527Z,102406.44
2022-10-29T18:23:59.226Z,102399.55
2022-10-29T18:26:32.502Z,102403.82
2022-10-29T18:29:03.342Z,102405.08
2022-10-29T18:31:33.307Z,102408.25
2022-10-29T18:34:05.673Z,102406.74
2022-10-29T18:36:36.279Z,102403.02
2022-10-29T18:39:07.113Z,102408.39
2022-10-29T18:41:36.881Z,102404.80
2022-10-29T18:44:05.755Z,102404.54
2022-10-29T18:46:34.960Z,102404.78
2022-10-29T18:49:03.402Z,102402.13
2022-10-29T18:51:33.851Z,102401.91
2022-10-29T18:54:02.740Z,102409.27
2022-10-29T18:56:34.349Z,102414.86
2022-10-29T18:59:03.070Z,102412.77
2022-10-29T19:01:35.208Z,102414.86
2022-10-29T19:04:06.508Z,102419.32
2022-10-29T19:06:39.081Z,102416.38
2022-10-29T19:09:09.691Z,102420.39
2022-10-29T19:11:38.762Z,102419.88
2022-10-29T19:14:10.550Z,102425.96
2022-10-29T19:16:41.942Z,102424.42
2022-10-29T19:19:16.058Z,102418.71
2022-10-29T19:21:46.759Z,102414.91
2022-10-29T19:24:19.127Z,102414.33
2022-10-29T19:26:47.444Z,102414.48
2022-10-29T20:55:38.826Z,102332.89
2022-10-29T20:58:07.361Z,102324.11
2022-10-29T21:00:36.009Z,102321.16
2022-10-29T21:03:04.453Z,102321.54
2022-10-29T21:05:32.774Z,102318.80
2022-10-29T21:08:03.721Z,102318.60
2022-10-29T21:10:32.628Z,102313.59
2022-10-29T21:13:05.389Z,102307.92
2022-10-29T21:15:37.709Z,102291.98
2022-10-29T21:18:06.797Z,102288.89
2022-10-29T21:20:34.979Z,102287.84
2022-10-29T21:23:03.942Z,102293.05
2022-10-29T21:25:32.713Z,102291.10
2022-10-29T21:28:04.190Z,102287.24
2022-10-29T21:30:33.397Z,102289.77
2022-10-29T21:33:02.245Z,102294.20
2022-10-29T21:35:31.163Z,102302.23
2022-10-29T21:40:42.330Z,102307.11
2022-10-29T21:43:10.567Z,102306.29
2022-10-29T21:45:39.581Z,102304.10
2022-10-29T21:48:08.219Z,102301.77
2022-10-29T21:50:37.214Z,102295.23
2022-10-29T21:53:06.667Z,102298.42
2022-10-29T21:55:36.136Z,102303.00
2022-10-29T21:58:05.860Z,102302.28
2022-10-29T22:00:34.770Z,102301.17
2022-10-29T22:03:04.628Z,102300.05
2022-10-29T22:05:33.541Z,102298.91
2022-10-29T22:08:02.222Z,102294.52
2022-10-29T22:10:31.306Z,102296.41
2022-10-29T22:13:02.781Z,102291.85
2022-10-29T22:15:31.755Z,102283.98
2022-10-29T22:18:00.540Z,102278.22
2022-10-29T22:20:29.152Z,102280.52
2022-10-29T22:22:58.130Z,102282.48
2022-10-29T22:25:26.826Z,102277.48
2022-10-29T22:27:55.483Z,102277.69
2022-10-29T22:30:23.990Z,102276.00
2022-10-29T22:32:52.355Z,102275.73
2022-10-29T22:35:21.354Z,102270.10
2022-10-29T22:37:49.943Z,102271.46
2022-10-29T22:40:18.463Z,102266.88
2022-10-29T22:42:50.118Z,102264.57
2022-10-29T22:45:19.089Z,102266.17
2022-10-29T22:47:47.871Z,102266.90
2022-10-29T22:50:16.009Z,102268.65
2022-10-29T22:52:44.383Z,102272.71
2022-10-29T22:55:13.387Z,102271.23
2022-10-29T22:57:44.356Z,102268.70
2022-10-29T23:00:13.782Z,102267.53
2022-10-29T23:02:42.277Z,102263.92
2022-10-29T23:05:11.075Z,102255.98
2022-10-29T23:07:39.555Z,102250.79
2022-10-29T23:10:08.559Z,102241.57
2022-10-29T23:12:39.061Z,102233.23
2022-10-29T23:15:09.462Z,102231.49
2022-10-29T23:17:38.512Z,102239.66
2022-10-29T23:20:07.163Z,102236.64
2022-10-29T23:22:36.262Z,102232.54
2022-10-29T23:25:04.920Z,102229.51
2022-10-29T23:27:33.864Z,102221.62
2022-10-29T23:30:03.083Z,102223.39
2022-10-29T23:32:32.898Z,102224.55
2022-10-29T23:35:01.585Z,102222.58
2022-10-29T23:37:30.265Z,102215.93
2022-10-29T23:40:01.037Z,102211.71
2022-10-29T23:45:15.184Z,102214.67
2022-10-29T23:47:43.828Z,102220.07
2022-10-29T23:50:12.547Z,102219.35
2022-10-29T23:52:41.372Z,102220.85
2022-10-29T23:55:10.570Z,102218.73
2022-10-29T23:57:39.410Z,102219.78
